createdAt,value
2019-01-29T00:00:09.388Z,981.05
2019-01-29T00:01:09.429Z,980.99
2019-01-29T00:02:09.439Z,981.14
2019-01-29T00:03:09.358Z,981.08
2019-01-29T00:04:09.361Z,981.09
2019-01-29T00:05:09.323Z,981.10
2019-01-29T00:06:09.345Z,981.11
2019-01-29T00:07:09.297Z,981.15
2019-01-29T00:08:09.297Z,981.15
2019-01-29T00:09:09.271Z,981.10
2019-01-29T00:10:09.287Z,981.17
2019-01-29T00:11:09.305Z,981.12
2019-01-29T00:12:09.246Z,981.19
2019-01-29T00:13:09.251Z,981.16
2019-01-29T00:14:09.257Z,981.17
2019-01-29T00:15:09.215Z,981.16
2019-01-29T00:16:09.192Z,981.15
2019-01-29T00:17:09.207Z,981.17
2019-01-29T00:18:09.270Z,981.23
2019-01-29T00:19:09.240Z,981.21
2019-01-29T00:20:09.166Z,981.25
2019-01-29T00:21:09.250Z,981.21
2019-01-29T00:22:09.151Z,981.23
2019-01-29T00:23:09.120Z,981.26
2019-01-29T00:24:09.305Z,981.28
2019-01-29T00:25:09.104Z,981.26
2019-01-29T00:26:09.115Z,981.26
2019-01-29T00:27:09.110Z,981.26
2019-01-29T00:28:09.085Z,981.20
2019-01-29T00:29:09.119Z,981.26
2019-01-29T00:30:09.108Z,981.30
2019-01-29T00:31:09.040Z,981.32
2019-01-29T00:32:09.022Z,981.22
2019-01-29T00:33:09.039Z,981.26
2019-01-29T00:34:09.002Z,981.29
2019-01-29T00:35:09.006Z,981.29
2019-01-29T00:36:09.015Z,981.31
2019-01-29T00:37:08.993Z,981.33
2019-01-29T00:38:08.964Z,981.30
2019-01-29T00:39:08.994Z,981.29
2019-01-29T00:40:09.012Z,981.38
2019-01-29T00:41:08.998Z,981.39
2019-01-29T00:42:08.945Z,981.38
2019-01-29T00:43:08.968Z,981.38
2019-01-29T00:44:08.900Z,981.50
2019-01-29T00:45:08.967Z,981.48
2019-01-29T00:46:08.932Z,981.47
2019-01-29T00:47:08.908Z,981.48
2019-01-29T00:48:09.002Z,981.52
2019-01-29T00:49:08.947Z,981.45
2019-01-29T00:50:08.829Z,981.47
2019-01-29T00:51:08.894Z,981.48
2019-01-29T00:52:08.887Z,981.46
2019-01-29T00:53:08.889Z,981.52
2019-01-29T00:54:08.840Z,981.55
2019-01-29T00:55:08.779Z,981.53
2019-01-29T00:56:08.814Z,981.53
2019-01-29T00:57:08.894Z,981.57
2019-01-29T00:58:08.757Z,981.56
2019-01-29T00:59:08.743Z,981.62
2019-01-29T01:00:08.765Z,981.62
2019-01-29T01:01:08.770Z,981.64
2019-01-29T01:02:08.814Z,981.65
2019-01-29T01:03:08.682Z,981.65
2019-01-29T01:04:08.816Z,981.61
2019-01-29T01:05:08.672Z,981.66
2019-01-29T01:06:08.703Z,981.59
2019-01-29T01:07:08.729Z,981.59
2019-01-29T01:08:08.762Z,981.65
2019-01-29T01:09:08.627Z,981.65
2019-01-29T01:10:08.656Z,981.68
2019-01-29T01:11:08.848Z,981.65
2019-01-29T01:12:08.590Z,981.63
2019-01-29T01:13:08.750Z,981.72
2019-01-29T01:14:08.623Z,981.74
2019-01-29T01:15:08.586Z,981.73
2019-01-29T01:16:08.624Z,981.77
2019-01-29T01:17:08.682Z,981.79
2019-01-29T01:18:08.545Z,981.75
2019-01-29T01:19:08.684Z,981.79
2019-01-29T01:20:08.595Z,981.80
2019-01-29T01:21:08.505Z,981.74
2019-01-29T01:22:08.615Z,981.74
2019-01-29T01:23:08.644Z,981.79
2019-01-29T01:24:08.474Z,981.75
2019-01-29T01:25:08.631Z,981.76
2019-01-29T01:26:08.440Z,981.69
2019-01-29T01:27:08.519Z,981.74
2019-01-29T01:28:08.517Z,981.68
2019-01-29T01:29:08.824Z,981.62
2019-01-29T01:30:08.404Z,981.68
2019-01-29T01:31:08.493Z,981.70
2019-01-29T01:32:08.387Z,981.63
2019-01-29T01:33:08.479Z,981.64
2019-01-29T01:34:08.389Z,981.62
2019-01-29T01:35:08.350Z,981.61
2019-01-29T01:36:08.346Z,981.61
2019-01-29T01:37:08.505Z,981.71
2019-01-29T01:38:08.328Z,981.70
2019-01-29T01:39:08.430Z,981.68
2019-01-29T01:40:08.372Z,981.63
2019-01-29T01:41:08.322Z,981.68
2019-01-29T01:42:08.279Z,981.65
2019-01-29T01:43:08.304Z,981.62
2019-01-29T01:44:08.267Z,981.67
2019-01-29T01:45:08.370Z,981.62
2019-01-29T01:46:08.235Z,981.66
2019-01-29T01:47:08.276Z,981.58
2019-01-29T01:48:08.282Z,981.59
2019-01-29T01:49:08.264Z,981.67
2019-01-29T01:50:08.175Z,981.68
2019-01-29T01:51:08.194Z,981.64
2019-01-29T01:52:08.157Z,981.68
2019-01-29T01:53:08.173Z,981.67
2019-01-29T01:54:08.153Z,981.69
2019-01-29T01:55:08.154Z,981.74
2019-01-29T01:56:08.126Z,981.73
2019-01-29T01:57:08.247Z,981.65
2019-01-29T01:58:08.094Z,981.69
2019-01-29T01:59:08.091Z,981.68
2019-01-29T02:00:08.141Z,981.75
2019-01-29T02:01:08.253Z,981.68
2019-01-29T02:02:08.123Z,981.68
2019-01-29T02:03:08.066Z,981.70
2019-01-29T02:04:08.143Z,981.70
2019-01-29T02:05:08.021Z,981.70
2019-01-29T02:06:08.098Z,981.70
2019-01-29T02:07:08.038Z,981.63
2019-01-29T02:08:08.142Z,981.63
2019-01-29T02:09:08.116Z,981.65
2019-01-29T02:10:08.235Z,981.62
2019-01-29T02:11:08.026Z,981.64
2019-01-29T02:12:08.100Z,981.50
2019-01-29T02:13:07.991Z,981.54
2019-01-29T02:14:07.990Z,981.59
2019-01-29T02:15:08.064Z,981.57
2019-01-29T02:16:07.927Z,981.51
2019-01-29T02:17:07.942Z,981.55
2019-01-29T02:18:08.060Z,981.54
2019-01-29T02:19:07.949Z,981.55
2019-01-29T02:20:07.860Z,981.55
2019-01-29T02:21:07.857Z,981.60
2019-01-29T02:22:07.934Z,981.62
2019-01-29T02:23:08.439Z,981.60
2019-01-29T02:24:07.833Z,981.57
2019-01-29T02:25:07.839Z,981.63
2019-01-29T02:26:07.958Z,981.68
2019-01-29T02:27:07.779Z,981.60
2019-01-29T02:28:08.082Z,981.69
2019-01-29T02:29:07.945Z,981.77
2019-01-29T02:30:07.800Z,981.73
2019-01-29T02:31:07.905Z,981.73
2019-01-29T02:32:08.129Z,981.75
2019-01-29T02:33:07.838Z,981.74
2019-01-29T02:34:07.847Z,981.66
2019-01-29T02:35:07.760Z,981.72
2019-01-29T02:36:07.808Z,981.74
2019-01-29T02:37:07.777Z,981.75
2019-01-29T02:38:07.670Z,981.79
2019-01-29T02:39:07.741Z,981.76
2019-01-29T02:40:07.773Z,981.78
2019-01-29T02:41:07.678Z,981.82
2019-01-29T02:42:08.013Z,981.84
2019-01-29T02:43:07.751Z,981.78
2019-01-29T02:44:07.601Z,981.82
2019-01-29T02:45:07.713Z,981.81
2019-01-29T02:46:07.607Z,981.81
2019-01-29T02:47:07.570Z,981.80
2019-01-29T02:48:07.559Z,981.82
2019-01-29T02:49:07.633Z,981.82
2019-01-29T02:50:07.900Z,981.86
2019-01-29T02:51:08.159Z,981.88
2019-01-29T02:52:07.537Z,981.87
2019-01-29T02:53:17.337Z,981.91
2019-01-29T02:54:08.505Z,981.85
2019-01-29T02:55:07.682Z,981.95
2019-01-29T02:56:07.510Z,982.00
2019-01-29T02:57:07.519Z,981.91
2019-01-29T02:58:07.646Z,981.84
2019-01-29T02:59:07.475Z,981.86
2019-01-29T03:00:07.426Z,981.89
2019-01-29T03:01:07.474Z,981.94
2019-01-29T03:02:07.415Z,981.93
2019-01-29T03:03:07.580Z,981.99
2019-01-29T03:04:07.420Z,982.01
2019-01-29T03:05:07.410Z,981.94
2019-01-29T03:06:07.404Z,982.04
2019-01-29T03:07:07.531Z,982.02
2019-01-29T03:08:07.550Z,981.99
2019-01-29T03:09:07.351Z,982.05
2019-01-29T03:10:07.878Z,982.02
2019-01-29T03:11:07.379Z,982.09
2019-01-29T03:12:07.472Z,982.06
2019-01-29T03:13:07.292Z,982.05
2019-01-29T03:14:07.302Z,981.98
2019-01-29T03:15:07.274Z,982.03
2019-01-29T03:16:07.519Z,982.03
2019-01-29T03:17:07.275Z,982.08
2019-01-29T03:18:07.251Z,982.04
2019-01-29T03:19:07.272Z,982.06
2019-01-29T03:20:07.227Z,982.03
2019-01-29T03:21:07.237Z,982.01
2019-01-29T03:22:07.204Z,982.13
2019-01-29T03:23:07.216Z,982.09
2019-01-29T03:24:07.280Z,982.13
2019-01-29T03:25:07.356Z,982.09
2019-01-29T03:26:07.320Z,982.11
2019-01-29T03:27:07.301Z,982.04
2019-01-29T03:28:07.293Z,982.05
2019-01-29T03:29:07.189Z,982.09
2019-01-29T03:30:07.119Z,982.16
2019-01-29T03:31:07.105Z,982.08
2019-01-29T03:32:07.121Z,982.11
2019-01-29T03:33:07.181Z,982.15
2019-01-29T03:34:07.109Z,982.17
2019-01-29T03:35:07.051Z,982.14
2019-01-29T03:36:07.122Z,982.21
2019-01-29T03:37:07.258Z,982.15
2019-01-29T03:38:07.176Z,982.21
2019-01-29T03:39:07.071Z,982.22
2019-01-29T03:40:07.005Z,982.16
2019-01-29T03:41:07.058Z,982.15
2019-01-29T03:42:07.078Z,982.20
2019-01-29T03:43:07.043Z,982.25
2019-01-29T03:44:07.263Z,982.20
2019-01-29T03:45:06.969Z,982.27
2019-01-29T03:46:06.989Z,982.26
2019-01-29T03:47:07.126Z,982.30
2019-01-29T03:48:06.913Z,982.32
2019-01-29T03:49:07.051Z,982.31
2019-01-29T03:50:06.935Z,982.28
2019-01-29T03:51:06.953Z,982.34
2019-01-29T03:52:06.918Z,982.29
2019-01-29T03:53:07.012Z,982.31
2019-01-29T03:54:06.942Z,982.35
2019-01-29T03:55:07.012Z,982.31
2019-01-29T03:56:06.981Z,982.32
2019-01-29T03:57:07.010Z,982.35
2019-01-29T03:58:06.866Z,982.39
2019-01-29T03:59:06.860Z,982.37
2019-01-29T04:00:06.854Z,982.39
2019-01-29T04:01:06.823Z,982.37
2019-01-29T04:02:06.832Z,982.38
2019-01-29T04:03:06.825Z,982.35
2019-01-29T04:04:06.849Z,982.35
2019-01-29T04:05:06.814Z,982.34
2019-01-29T04:06:06.737Z,982.27
2019-01-29T04:07:06.739Z,982.26
2019-01-29T04:08:06.753Z,982.30
2019-01-29T04:09:06.916Z,982.25
2019-01-29T04:10:06.695Z,982.33
2019-01-29T04:11:06.754Z,982.27
2019-01-29T04:12:06.822Z,982.32
2019-01-29T04:13:06.838Z,982.40
2019-01-29T04:14:06.713Z,982.37
2019-01-29T04:15:06.629Z,982.37
2019-01-29T04:16:06.707Z,982.40
2019-01-29T04:17:06.779Z,982.42
2019-01-29T04:18:06.777Z,982.43
2019-01-29T04:19:06.623Z,982.46
2019-01-29T04:20:06.678Z,982.48
2019-01-29T04:21:06.604Z,982.46
2019-01-29T04:22:06.655Z,982.42
2019-01-29T04:23:06.624Z,982.43
2019-01-29T04:24:06.664Z,982.48
2019-01-29T04:25:06.569Z,982.41
2019-01-29T04:26:06.537Z,982.41
2019-01-29T04:27:06.726Z,982.38
2019-01-29T04:28:06.538Z,982.40
2019-01-29T04:29:06.586Z,982.47
2019-01-29T04:30:06.476Z,982.46
2019-01-29T04:31:06.652Z,982.44
2019-01-29T04:32:06.439Z,982.48
2019-01-29T04:33:06.428Z,982.44
2019-01-29T04:34:06.410Z,982.50
2019-01-29T04:35:06.436Z,982.52
2019-01-29T04:36:06.486Z,982.51
2019-01-29T04:37:06.424Z,982.54
2019-01-29T04:38:06.410Z,982.51
2019-01-29T04:39:06.412Z,982.60
2019-01-29T04:40:06.391Z,982.69
2019-01-29T04:41:06.475Z,982.59
2019-01-29T04:42:06.527Z,982.62
2019-01-29T04:43:06.323Z,982.66
2019-01-29T04:44:06.402Z,982.62
2019-01-29T04:45:06.387Z,982.65
2019-01-29T04:46:06.292Z,982.68
2019-01-29T04:47:06.392Z,982.67
2019-01-29T04:48:06.286Z,982.61
2019-01-29T04:49:06.275Z,982.67
2019-01-29T04:50:06.351Z,982.65
2019-01-29T04:51:06.307Z,982.59
2019-01-29T04:52:06.399Z,982.64
2019-01-29T04:53:06.263Z,982.62
2019-01-29T04:54:06.285Z,982.63
2019-01-29T04:55:06.191Z,982.64
2019-01-29T04:56:06.251Z,982.63
2019-01-29T04:57:06.176Z,982.65
2019-01-29T04:58:06.163Z,982.68
2019-01-29T04:59:06.234Z,982.67
2019-01-29T05:00:06.191Z,982.67
2019-01-29T05:01:06.126Z,982.66
2019-01-29T05:02:06.122Z,982.67
2019-01-29T05:03:06.184Z,982.68
2019-01-29T05:04:06.186Z,982.67
2019-01-29T05:05:06.239Z,982.68
2019-01-29T05:06:06.364Z,982.69
2019-01-29T05:07:06.123Z,982.65
2019-01-29T05:08:06.072Z,982.69
2019-01-29T05:09:06.090Z,982.74
2019-01-29T05:10:06.307Z,982.71
2019-01-29T05:11:06.034Z,982.79
2019-01-29T05:12:06.043Z,982.79
2019-01-29T05:13:06.293Z,982.83
2019-01-29T05:14:06.102Z,982.84
2019-01-29T05:15:06.061Z,982.82
2019-01-29T05:16:06.031Z,982.85
2019-01-29T05:17:05.958Z,982.90
2019-01-29T05:18:06.018Z,982.86
2019-01-29T05:19:06.142Z,982.90
2019-01-29T05:20:05.985Z,982.95
2019-01-29T05:21:06.204Z,982.92
2019-01-29T05:22:06.027Z,982.95
2019-01-29T05:23:05.971Z,983.02
2019-01-29T05:24:07.035Z,983.01
2019-01-29T05:25:05.868Z,983.03
2019-01-29T05:26:06.185Z,983.05
2019-01-29T05:27:05.853Z,983.10
2019-01-29T05:28:06.158Z,983.04
2019-01-29T05:29:05.857Z,983.06
2019-01-29T05:30:06.206Z,983.16
2019-01-29T05:31:05.862Z,983.21
2019-01-29T05:32:06.118Z,983.23
2019-01-29T05:33:05.818Z,983.25
2019-01-29T05:34:05.866Z,983.24
2019-01-29T05:35:05.937Z,983.28
2019-01-29T05:36:05.844Z,983.35
2019-01-29T05:37:05.882Z,983.39
2019-01-29T05:38:05.779Z,983.41
2019-01-29T05:39:05.716Z,983.38
2019-01-29T05:40:05.798Z,983.42
2019-01-29T05:41:05.694Z,983.38
2019-01-29T05:42:05.707Z,983.33
2019-01-29T05:43:05.669Z,983.37
2019-01-29T05:44:05.682Z,983.39
2019-01-29T05:45:05.719Z,983.41
2019-01-29T05:46:05.870Z,983.43
2019-01-29T05:47:05.629Z,983.39
2019-01-29T05:48:05.867Z,983.37
2019-01-29T05:49:05.698Z,983.42
2019-01-29T05:50:05.625Z,983.40
2019-01-29T05:51:05.581Z,983.48
2019-01-29T05:52:05.612Z,983.45
2019-01-29T05:53:05.562Z,983.43
2019-01-29T05:54:05.553Z,983.48
2019-01-29T05:55:05.564Z,983.41
2019-01-29T05:56:05.531Z,983.48
2019-01-29T05:57:05.551Z,983.48
2019-01-29T05:58:05.521Z,983.49
2019-01-29T05:59:05.499Z,983.42
2019-01-29T06:00:05.604Z,983.47
2019-01-29T06:01:05.513Z,983.52
2019-01-29T06:02:05.468Z,983.54
2019-01-29T06:03:05.564Z,983.55
2019-01-29T06:04:05.853Z,983.57
2019-01-29T06:05:05.869Z,983.59
2019-01-29T06:06:05.468Z,983.55
2019-01-29T06:07:05.452Z,983.50
2019-01-29T06:08:05.447Z,983.53
2019-01-29T06:09:05.412Z,983.50
2019-01-29T06:10:05.719Z,983.55
2019-01-29T06:11:05.507Z,983.58
2019-01-29T06:12:05.400Z,983.57
2019-01-29T06:13:05.439Z,983.61
2019-01-29T06:14:05.396Z,983.60
2019-01-29T06:15:05.406Z,983.64
2019-01-29T06:16:05.391Z,983.65
2019-01-29T06:17:05.326Z,983.69
2019-01-29T06:18:05.426Z,983.74
2019-01-29T06:19:05.282Z,983.71
2019-01-29T06:20:05.339Z,983.77
2019-01-29T06:21:05.350Z,983.81
2019-01-29T06:22:05.302Z,983.76
2019-01-29T06:23:05.257Z,983.76
2019-01-29T06:24:05.332Z,983.77
2019-01-29T06:25:05.220Z,983.82
2019-01-29T06:26:05.209Z,983.83
2019-01-29T06:27:05.238Z,983.86
2019-01-29T06:28:05.428Z,983.89
2019-01-29T06:29:05.264Z,983.89
2019-01-29T06:30:05.262Z,983.92
2019-01-29T06:31:05.273Z,983.96
2019-01-29T06:32:05.237Z,983.97
2019-01-29T06:33:05.186Z,983.98
2019-01-29T06:34:05.339Z,983.98
2019-01-29T06:35:05.128Z,984.00
2019-01-29T06:36:05.172Z,984.07
2019-01-29T06:37:05.115Z,984.05
2019-01-29T06:38:05.093Z,984.06
2019-01-29T06:39:05.203Z,984.08
2019-01-29T06:40:05.105Z,984.09
2019-01-29T06:41:05.181Z,984.09
2019-01-29T06:42:05.077Z,984.11
2019-01-29T06:43:05.284Z,984.06
2019-01-29T06:44:05.020Z,984.05
2019-01-29T06:45:05.016Z,984.15
2019-01-29T06:46:05.111Z,984.09
2019-01-29T06:47:05.007Z,984.11
2019-01-29T06:48:04.998Z,984.13
2019-01-29T06:49:04.971Z,984.15
2019-01-29T06:50:04.961Z,984.14
2019-01-29T06:51:04.934Z,984.12
2019-01-29T06:52:04.939Z,984.19
2019-01-29T06:53:04.996Z,984.21
2019-01-29T06:54:04.919Z,984.25
2019-01-29T06:55:04.904Z,984.24
2019-01-29T06:56:04.937Z,984.22
2019-01-29T06:57:04.881Z,984.19
2019-01-29T06:58:04.957Z,984.24
2019-01-29T06:59:04.973Z,984.26
2019-01-29T07:00:04.932Z,984.19
2019-01-29T07:01:05.247Z,984.23
2019-01-29T07:02:04.823Z,984.28
2019-01-29T07:03:04.814Z,984.29
2019-01-29T07:04:04.818Z,984.24
2019-01-29T07:05:04.804Z,984.22
2019-01-29T07:06:04.840Z,984.27
2019-01-29T07:07:04.770Z,984.29
2019-01-29T07:08:04.768Z,984.31
2019-01-29T07:09:04.756Z,984.32
2019-01-29T07:10:04.780Z,984.19
2019-01-29T07:11:04.785Z,984.27
2019-01-29T07:12:04.723Z,984.22
2019-01-29T07:13:04.756Z,984.25
2019-01-29T07:14:04.740Z,984.27
2019-01-29T07:15:04.788Z,984.29
2019-01-29T07:16:04.669Z,984.32
2019-01-29T07:17:04.657Z,984.41
2019-01-29T07:18:04.759Z,984.46
2019-01-29T07:19:04.653Z,984.46
2019-01-29T07:20:04.670Z,984.38
2019-01-29T07:21:04.617Z,984.43
2019-01-29T07:22:04.596Z,984.42
2019-01-29T07:23:04.596Z,984.38
2019-01-29T07:24:04.643Z,984.41
2019-01-29T07:25:04.568Z,984.39
2019-01-29T07:26:04.576Z,984.38
2019-01-29T07:27:04.553Z,984.37
2019-01-29T07:28:04.568Z,984.38
2019-01-29T07:29:04.536Z,984.36
2019-01-29T07:30:04.528Z,984.40
2019-01-29T07:31:04.544Z,984.37
2019-01-29T07:32:04.485Z,984.43
2019-01-29T07:33:04.523Z,984.47
2019-01-29T07:34:04.499Z,984.47
2019-01-29T07:35:04.517Z,984.46
2019-01-29T07:36:04.454Z,984.43
2019-01-29T07:37:04.434Z,984.48
2019-01-29T07:38:04.435Z,984.50
2019-01-29T07:39:04.893Z,984.50
2019-01-29T07:40:04.441Z,984.46
2019-01-29T07:41:04.392Z,984.48
2019-01-29T07:42:04.482Z,984.50
2019-01-29T07:43:04.405Z,984.50
2019-01-29T07:44:04.399Z,984.51
2019-01-29T07:45:04.353Z,984.51
2019-01-29T07:46:04.362Z,984.54
2019-01-29T07:47:04.349Z,984.54
2019-01-29T07:48:04.378Z,984.57
2019-01-29T07:49:04.471Z,984.54
2019-01-29T07:50:04.455Z,984.62
2019-01-29T07:51:04.410Z,984.58
2019-01-29T07:52:04.344Z,984.52
2019-01-29T07:53:04.410Z,984.51
2019-01-29T07:54:04.260Z,984.54
2019-01-29T07:55:04.697Z,984.48
2019-01-29T07:56:04.352Z,984.49
2019-01-29T07:57:04.256Z,984.55
2019-01-29T07:58:04.210Z,984.49
2019-01-29T07:59:04.246Z,984.57
2019-01-29T08:00:04.188Z,984.60
2019-01-29T08:01:04.235Z,984.57
2019-01-29T08:02:04.222Z,984.58
2019-01-29T08:03:04.164Z,984.48
2019-01-29T08:04:04.306Z,984.48
2019-01-29T08:05:04.135Z,984.43
2019-01-29T08:06:04.136Z,984.46
2019-01-29T08:07:04.124Z,984.45
2019-01-29T08:08:04.101Z,984.48
2019-01-29T08:09:04.099Z,984.45
2019-01-29T08:10:04.103Z,984.41
2019-01-29T08:11:04.083Z,984.51
2019-01-29T08:12:04.057Z,984.53
2019-01-29T08:13:04.139Z,984.51
2019-01-29T08:14:04.042Z,984.52
2019-01-29T08:15:04.029Z,984.56
2019-01-29T08:16:04.018Z,984.60
2019-01-29T08:17:04.016Z,984.63
2019-01-29T08:18:03.997Z,984.66
2019-01-29T08:19:03.987Z,984.65
2019-01-29T08:20:03.990Z,984.77
2019-01-29T08:21:03.986Z,984.69
2019-01-29T08:22:03.954Z,984.70
2019-01-29T08:23:03.939Z,984.61
2019-01-29T08:24:03.940Z,984.71
2019-01-29T08:25:03.920Z,984.63
2019-01-29T08:26:03.910Z,984.78
2019-01-29T08:27:03.906Z,984.84
2019-01-29T08:28:03.888Z,984.82
2019-01-29T08:29:03.881Z,984.71
2019-01-29T08:30:03.879Z,984.76
2019-01-29T08:31:03.889Z,984.77
2019-01-29T08:32:03.849Z,984.83
2019-01-29T08:33:03.827Z,984.81
2019-01-29T08:34:03.882Z,984.77
2019-01-29T08:35:03.819Z,984.83
2019-01-29T08:36:03.799Z,984.82
2019-01-29T08:37:03.789Z,984.90
2019-01-29T08:38:03.782Z,984.84
2019-01-29T08:39:03.776Z,984.94
2019-01-29T08:40:03.777Z,984.88
2019-01-29T08:41:04.514Z,984.90
2019-01-29T08:42:03.799Z,984.99
2019-01-29T08:43:03.734Z,984.96
2019-01-29T08:44:03.711Z,984.96
2019-01-29T08:45:03.709Z,984.92
2019-01-29T08:46:03.705Z,984.94
2019-01-29T08:47:03.716Z,984.93
2019-01-29T08:48:03.713Z,984.91
2019-01-29T08:49:03.665Z,984.87
2019-01-29T08:50:03.661Z,984.89
2019-01-29T08:51:03.862Z,984.91
2019-01-29T08:52:03.629Z,984.86
2019-01-29T08:53:03.640Z,984.92
2019-01-29T08:54:03.620Z,984.83
2019-01-29T08:55:10.520Z,984.83
2019-01-29T08:56:04.591Z,984.88
2019-01-29T08:57:03.592Z,984.96
2019-01-29T08:58:03.570Z,984.85
2019-01-29T08:59:03.557Z,984.81
2019-01-29T09:00:03.556Z,984.83
2019-01-29T09:01:03.523Z,984.88
2019-01-29T09:02:03.515Z,984.80
2019-01-29T09:03:03.583Z,984.78
2019-01-29T09:04:03.523Z,984.81
2019-01-29T09:05:03.485Z,984.83
2019-01-29T09:06:03.521Z,984.79
2019-01-29T09:07:03.462Z,984.84
2019-01-29T09:08:03.709Z,984.83
2019-01-29T09:09:03.449Z,984.79
2019-01-29T09:10:03.472Z,984.86
2019-01-29T09:11:03.460Z,984.79
2019-01-29T09:12:03.408Z,984.79
2019-01-29T09:13:03.424Z,984.82
2019-01-29T09:14:03.397Z,984.81
2019-01-29T09:15:03.438Z,984.82
2019-01-29T09:16:03.494Z,984.85
2019-01-29T09:17:03.357Z,984.85
2019-01-29T09:18:03.365Z,984.85
2019-01-29T09:19:03.408Z,984.85
2019-01-29T09:20:03.353Z,984.87
2019-01-29T09:21:03.390Z,984.90
2019-01-29T09:22:03.333Z,984.90
2019-01-29T09:23:03.290Z,984.89
2019-01-29T09:24:03.280Z,984.94
2019-01-29T09:25:03.286Z,984.91
2019-01-29T09:26:03.251Z,984.89
2019-01-29T09:27:03.243Z,985.01
2019-01-29T09:28:03.238Z,985.02
2019-01-29T09:29:03.277Z,985.02
2019-01-29T09:30:03.227Z,985.05
2019-01-29T09:31:03.230Z,985.02
2019-01-29T09:32:03.188Z,985.05
2019-01-29T09:33:03.175Z,985.10
2019-01-29T09:34:03.170Z,985.15
2019-01-29T09:35:03.157Z,985.13
2019-01-29T09:36:03.206Z,985.09
2019-01-29T09:37:03.141Z,985.13
2019-01-29T09:38:03.182Z,985.18
2019-01-29T09:39:03.137Z,985.19
2019-01-29T09:40:03.122Z,985.18
2019-01-29T09:41:03.130Z,985.24
2019-01-29T09:42:03.087Z,985.23
2019-01-29T09:43:03.106Z,985.23
2019-01-29T09:44:03.086Z,985.32
2019-01-29T09:45:03.076Z,985.40
2019-01-29T09:46:03.062Z,985.37
2019-01-29T09:47:03.041Z,985.36
2019-01-29T09:48:03.036Z,985.45
2019-01-29T09:49:03.013Z,985.43
2019-01-29T09:50:03.036Z,985.41
2019-01-29T09:51:03.049Z,985.45
2019-01-29T09:52:02.987Z,985.49
2019-01-29T09:53:02.963Z,985.54
2019-01-29T09:54:02.952Z,985.61
2019-01-29T09:55:02.949Z,985.54
2019-01-29T09:56:02.948Z,985.59
2019-01-29T09:57:02.911Z,985.65
2019-01-29T09:58:02.925Z,985.67
2019-01-29T09:59:02.901Z,985.64
2019-01-29T10:00:02.911Z,985.58
2019-01-29T10:01:02.874Z,985.59
2019-01-29T10:02:02.870Z,985.55
2019-01-29T10:03:02.849Z,985.58
2019-01-29T10:04:02.869Z,985.61
2019-01-29T10:05:02.829Z,985.69
2019-01-29T10:06:02.818Z,985.62
2019-01-29T10:07:02.811Z,985.63
2019-01-29T10:08:02.841Z,985.61
2019-01-29T10:09:02.823Z,985.64
2019-01-29T10:10:02.842Z,985.69
2019-01-29T10:11:02.815Z,985.55
2019-01-29T10:12:02.774Z,985.52
2019-01-29T10:13:02.784Z,985.65
2019-01-29T10:14:02.798Z,985.62
2019-01-29T10:15:03.351Z,985.56
2019-01-29T10:16:02.709Z,985.60
2019-01-29T10:17:02.723Z,985.53
2019-01-29T10:18:02.706Z,985.57
2019-01-29T10:19:02.680Z,985.55
2019-01-29T10:20:03.348Z,985.55
2019-01-29T10:21:02.655Z,985.54
2019-01-29T10:22:02.653Z,985.58
2019-01-29T10:23:02.641Z,985.59
2019-01-29T10:24:02.639Z,985.62
2019-01-29T10:25:02.620Z,985.50
2019-01-29T10:26:02.623Z,985.47
2019-01-29T10:27:02.595Z,985.51
2019-01-29T10:28:02.596Z,985.60
2019-01-29T10:29:02.626Z,985.54
2019-01-29T10:30:02.559Z,985.56
2019-01-29T10:31:02.550Z,985.54
2019-01-29T10:32:02.539Z,985.53
2019-01-29T10:33:02.524Z,985.54
2019-01-29T10:34:02.564Z,985.49
2019-01-29T10:35:02.505Z,985.55
2019-01-29T10:36:02.496Z,985.55
2019-01-29T10:37:02.490Z,985.61
2019-01-29T10:38:02.484Z,985.57
2019-01-29T10:39:02.462Z,985.54
2019-01-29T10:40:02.442Z,985.52
2019-01-29T10:41:02.483Z,985.51
2019-01-29T10:42:02.430Z,985.48
2019-01-29T10:43:02.419Z,985.48
2019-01-29T10:44:02.403Z,985.40
2019-01-29T10:45:02.435Z,985.38
2019-01-29T10:46:02.399Z,985.34
2019-01-29T10:47:02.376Z,985.32
2019-01-29T10:48:02.382Z,985.25
2019-01-29T10:49:02.355Z,985.32
2019-01-29T10:50:02.339Z,985.18
2019-01-29T10:51:02.370Z,985.21
2019-01-29T10:52:02.317Z,985.21
2019-01-29T10:53:02.313Z,985.31
2019-01-29T10:54:02.331Z,985.27
2019-01-29T10:55:02.364Z,985.23
2019-01-29T10:56:02.271Z,985.33
2019-01-29T10:57:02.311Z,985.33
2019-01-29T10:58:02.247Z,985.24
2019-01-29T10:59:02.264Z,985.26
2019-01-29T11:00:02.230Z,985.34
2019-01-29T11:01:02.226Z,985.21
2019-01-29T11:02:02.217Z,985.17
2019-01-29T11:03:02.199Z,985.08
2019-01-29T11:04:02.247Z,985.10
2019-01-29T11:05:02.175Z,985.09
2019-01-29T11:06:02.232Z,985.03
2019-01-29T11:07:02.146Z,984.99
2019-01-29T11:08:02.150Z,985.02
2019-01-29T11:09:02.164Z,984.98
2019-01-29T11:10:02.122Z,984.97
2019-01-29T11:11:02.153Z,984.93
2019-01-29T11:12:02.101Z,984.94
2019-01-29T11:13:02.087Z,984.97
2019-01-29T11:14:02.115Z,984.95
2019-01-29T11:15:02.071Z,984.88
2019-01-29T11:16:02.108Z,984.91
2019-01-29T11:17:02.109Z,984.94
2019-01-29T11:18:02.149Z,984.91
2019-01-29T11:19:03.258Z,984.88
2019-01-29T11:20:02.091Z,984.89
2019-01-29T11:21:02.005Z,984.91
2019-01-29T11:22:02.255Z,985.01
2019-01-29T11:23:02.012Z,984.93
2019-01-29T11:24:01.972Z,984.88
2019-01-29T11:25:01.971Z,984.98
2019-01-29T11:26:01.951Z,984.95
2019-01-29T11:27:01.983Z,984.94
2019-01-29T11:28:01.947Z,984.91
2019-01-29T11:29:01.929Z,984.89
2019-01-29T11:30:01.911Z,984.97
2019-01-29T11:31:01.976Z,984.94
2019-01-29T11:32:01.883Z,985.00
2019-01-29T11:33:01.928Z,984.90
2019-01-29T11:34:01.977Z,984.91
2019-01-29T11:35:01.848Z,984.94
2019-01-29T11:36:01.838Z,984.87
2019-01-29T11:37:01.861Z,984.87
2019-01-29T11:38:01.828Z,984.83
2019-01-29T11:39:01.856Z,984.88
2019-01-29T11:40:01.800Z,984.87
2019-01-29T11:41:01.793Z,984.90
2019-01-29T11:42:01.782Z,984.88
2019-01-29T11:43:01.769Z,984.83
2019-01-29T11:44:01.780Z,984.85
2019-01-29T11:45:01.761Z,984.84
2019-01-29T11:46:01.763Z,984.89
2019-01-29T11:47:01.719Z,984.88
2019-01-29T11:48:01.786Z,984.88
2019-01-29T11:49:02.778Z,984.91
2019-01-29T11:50:01.687Z,984.92
2019-01-29T11:51:01.684Z,984.86
2019-01-29T11:52:01.680Z,984.88
2019-01-29T11:53:01.641Z,984.89
2019-01-29T11:54:01.638Z,984.94
2019-01-29T11:55:01.658Z,984.90
2019-01-29T11:56:04.731Z,984.84
2019-01-29T11:57:01.702Z,984.85
2019-01-29T11:58:01.624Z,984.80
2019-01-29T11:59:01.719Z,984.82
2019-01-29T12:00:01.639Z,984.80
2019-01-29T12:01:01.564Z,984.69
2019-01-29T12:02:01.703Z,984.70
2019-01-29T12:03:01.626Z,984.74
2019-01-29T12:04:01.558Z,984.70
2019-01-29T12:05:01.536Z,984.66
2019-01-29T12:06:01.566Z,984.72
2019-01-29T12:07:01.503Z,984.75
2019-01-29T12:08:01.735Z,984.78
2019-01-29T12:09:01.673Z,984.71
2019-01-29T12:10:01.465Z,984.71
2019-01-29T12:11:01.479Z,984.66
2019-01-29T12:12:01.499Z,984.67
2019-01-29T12:13:02.517Z,984.59
2019-01-29T12:14:01.427Z,984.63
2019-01-29T12:15:01.486Z,984.66
2019-01-29T12:16:01.520Z,984.64
2019-01-29T12:17:01.633Z,984.66
2019-01-29T12:18:01.550Z,984.59
2019-01-29T12:19:01.381Z,984.62
2019-01-29T12:20:01.355Z,984.58
2019-01-29T12:21:01.360Z,984.63
2019-01-29T12:22:01.353Z,984.64
2019-01-29T12:23:01.377Z,984.57
2019-01-29T12:24:01.304Z,984.53
2019-01-29T12:25:01.326Z,984.59
2019-01-29T12:26:01.286Z,984.60
2019-01-29T12:27:01.284Z,984.54
2019-01-29T12:28:01.397Z,984.62